Time;durP1;ratioP1;P1;durP2;ratioP2;P2;SDS_P1;SDS_P2;PMS_P1;PMS_P2;Temp;Humidity;BMP_temperature;BMP_pressure;BME280_temperature;BME280_humidity;BME280_pressure;Samples;Min_cycle;Max_cycle;Signal;HPM_P1;HPM_P2
2023/05/27 00:01:01;;;;;;;;;;;;;;;14.48;53.37;102385.19;4195559;28;20921;-70
2023/05/27 00:03:03;;;;;;;;;;;;;;;14.47;53.20;102388.94;4193311;28;20458;-70
2023/05/27 00:05:07;;;;;;;;;;;;;;;14.43;53.60;102391.09;4196049;28;20551;-70
2023/05/27 00:07:09;;;;;;;;;;;;;;;14.40;53.58;102386.00;4194572;28;20459;-70
2023/05/27 00:09:12;;;;;;;;;;;;;;;14.40;53.86;102386.00;4194480;28;20011;-70
2023/05/27 00:11:14;;;;;;;;;;;;;;;14.35;53.93;102385.63;4194909;28;20297;-70
2023/05/27 00:13:16;;;;;;;;;;;;;;;14.27;53.81;102394.59;4194603;28;20015;-70
2023/05/27 00:15:18;;;;;;;;;;;;;;;14.18;54.11;102390.97;4193977;28;20055;-70
2023/05/27 00:17:20;;;;;;;;;;;;;;;14.16;54.24;102379.41;4195948;28;20011;-70
2023/05/27 00:19:23;;;;;;;;;;;;;;;14.16;54.37;102395.72;4194286;28;20019;-70
2023/05/27 00:21:26;;;;;;;;;;;;;;;14.16;54.26;102386.72;4195228;28;20003;-70
2023/05/27 00:23:31;;;;;;;;;;;;;;;14.10;54.61;102380.06;4194188;28;20063;-71
2023/05/27 00:25:33;;;;;;;;;;;;;;;14.06;54.62;102390.41;4210835;28;20365;-70
2023/05/27 00:27:35;;;;;;;;;;;;;;;14.00;54.87;102385.59;4194988;28;20011;-70
2023/05/27 00:29:37;;;;;;;;;;;;;;;13.98;55.14;102392.19;4194312;28;20059;-71
2023/05/27 00:31:39;;;;;;;;;;;;;;;13.98;54.98;102384.91;4193780;28;20431;-70
2023/05/27 00:33:43;;;;;;;;;;;;;;;13.90;55.29;102384.00;4194985;28;20031;-70
2023/05/27 00:35:45;;;;;;;;;;;;;;;13.82;55.43;102387.50;4195296;28;20433;-70
2023/05/27 00:37:49;;;;;;;;;;;;;;;13.80;55.88;102386.81;4187261;28;20027;-71
2023/05/27 00:39:50;;;;;;;;;;;;;;;13.79;55.85;102385.97;4194171;28;20031;-71
2023/05/27 00:41:53;;;;;;;;;;;;;;;13.79;55.73;102379.66;4194867;28;20015;-70
2023/05/27 00:43:56;;;;;;;;;;;;;;;13.75;56.18;102389.16;4195042;28;20019;-71
2023/05/27 00:45:58;;;;;;;;;;;;;;;13.69;56.46;102390.63;4194912;28;20016;-70
2023/05/27 00:48:00;;;;;;;;;;;;;;;13.66;56.12;102386.34;4199888;28;20394;-71
2023/05/27 00:50:03;;;;;;;;;;;;;;;13.58;56.69;102388.16;4194350;28;20439;-71
2023/05/27 00:52:05;;;;;;;;;;;;;;;13.53;56.62;102388.63;4191707;28;19929;-71
2023/05/27 00:54:10;;;;;;;;;;;;;;;13.45;57.30;102383.16;4193475;28;20009;-70
2023/05/27 00:56:15;;;;;;;;;;;;;;;13.44;56.88;102387.69;4193748;28;20471;-70
2023/05/27 00:58:18;;;;;;;;;;;;;;;13.41;56.99;102387.16;4193798;28;20023;-71
2023/05/27 01:00:20;;;;;;;;;;;;;;;13.35;57.48;102380.50;4194027;28;20035;-71
2023/05/27 01:02:23;;;;;;;;;;;;;;;13.32;57.48;102384.34;4193112;28;20024;-71
2023/05/27 01:04:25;;;;;;;;;;;;;;;13.33;57.38;102391.50;4192383;28;20015;-70
2023/05/27 01:06:30;;;;;;;;;;;;;;;13.34;57.80;102390.50;4194471;28;20466;-70
2023/05/27 01:08:35;;;;;;;;;;;;;;;13.36;57.78;102386.78;4193668;28;20043;-70
2023/05/27 01:10:41;;;;;;;;;;;;;;;13.31;57.73;102385.34;4193894;28;20028;-71
2023/05/27 01:12:45;;;;;;;;;;;;;;;13.24;58.18;102384.25;4179638;28;19929;-70
2023/05/27 01:14:47;;;;;;;;;;;;;;;13.20;58.36;102377.44;4194022;28;20011;-71
2023/05/27 01:16:49;;;;;;;;;;;;;;;13.17;58.21;102380.47;4185495;28;20494;-71
2023/05/27 01:18:52;;;;;;;;;;;;;;;13.14;58.52;102375.34;4194633;28;20035;-71
2023/05/27 01:20:54;;;;;;;;;;;;;;;13.07;58.78;102383.25;4192964;28;20026;-71
2023/05/27 01:22:59;;;;;;;;;;;;;;;12.96;58.87;102378.91;4192649;28;20051;-71
2023/05/27 01:25:01;;;;;;;;;;;;;;;12.97;59.05;102379.75;4193039;28;20011;-70
2023/05/27 01:27:03;;;;;;;;;;;;;;;12.98;59.17;102376.03;4193524;28;20043;-70
2023/05/27 01:29:05;;;;;;;;;;;;;;;12.98;59.03;102382.31;4186709;28;20043;-71
2023/05/27 01:31:10;;;;;;;;;;;;;;;12.97;59.41;102377.03;4210092;28;20413;-70
2023/05/27 01:33:14;;;;;;;;;;;;;;;12.95;59.61;102376.34;4187450;28;19955;-70
2023/05/27 01:35:17;;;;;;;;;;;;;;;12.93;59.60;102378.31;4205134;28;20018;-71
2023/05/27 01:37:20;;;;;;;;;;;;;;;12.90;59.62;102375.91;4197088;28;20454;-71
2023/05/27 01:39:24;;;;;;;;;;;;;;;12.86;59.76;102371.81;4180456;28;20417;-70
2023/05/27 01:41:26;;;;;;;;;;;;;;;12.85;59.78;102370.09;4197312;28;20020;-70
2023/05/27 01:43:28;;;;;;;;;;;;;;;12.79;59.99;102380.56;4196303;28;20011;-71
2023/05/27 01:45:30;;;;;;;;;;;;;;;12.72;60.23;102362.34;4197526;28;20023;-71
2023/05/27 01:47:32;;;;;;;;;;;;;;;12.76;60.58;102377.31;4196624;28;20368;-71
2023/05/27 01:49:35;;;;;;;;;;;;;;;12.77;60.36;102373.56;4194140;28;20457;-70
2023/05/27 01:51:37;;;;;;;;;;;;;;;12.72;59.95;102365.06;4195657;28;20031;-71
2023/05/27 01:53:39;;;;;;;;;;;;;;;12.64;60.58;102378.53;4195924;28;19960;-71
2023/05/27 01:55:42;;;;;;;;;;;;;;;12.59;60.87;102363.53;4195473;28;20011;-71
2023/05/27 01:57:45;;;;;;;;;;;;;;;12.58;60.77;102361.84;4195979;28;20023;-70
2023/05/27 01:59:47;;;;;;;;;;;;;;;12.55;61.05;102364.84;4197044;28;20042;-71
2023/05/27 02:01:49;;;;;;;;;;;;;;;12.57;60.89;102371.00;4193524;28;20020;-71
2023/05/27 02:03:51;;;;;;;;;;;;;;;12.54;60.93;102370.41;4197016;28;20015;-70
2023/05/27 02:05:53;;;;;;;;;;;;;;;12.51;61.18;102362.63;4196640;28;20026;-70
2023/05/27 02:07:56;;;;;;;;;;;;;;;12.51;61.01;102365.31;4191032;28;20023;-70
2023/05/27 02:09:58;;;;;;;;;;;;;;;12.54;60.99;102357.75;4196873;28;20019;-70
2023/05/27 02:12:01;;;;;;;;;;;;;;;12.54;60.87;102365.88;4196645;28;20047;-71
2023/05/27 02:14:05;;;;;;;;;;;;;;;12.57;60.69;102357.44;4195521;28;20651;-71
2023/05/27 02:16:07;;;;;;;;;;;;;;;12.48;61.23;102355.63;4196057;28;20015;-70
2023/05/27 02:18:09;;;;;;;;;;;;;;;12.44;61.42;102365.91;4196484;28;20019;-70
2023/05/27 02:20:12;;;;;;;;;;;;;;;12.42;61.35;102361.63;4196741;28;20434;-70
2023/05/27 02:22:14;;;;;;;;;;;;;;;12.34;61.45;102369.66;4195206;28;20363;-70
2023/05/27 02:24:16;;;;;;;;;;;;;;;12.26;61.82;102365.00;4195882;28;20015;-71
2023/05/27 02:26:18;;;;;;;;;;;;;;;12.22;61.86;102367.13;4196485;28;20015;-71
2023/05/27 02:28:21;;;;;;;;;;;;;;;12.21;62.13;102356.44;4197096;28;20015;-70
2023/05/27 02:30:23;;;;;;;;;;;;;;;12.21;62.30;102357.31;4195731;28;20015;-70
2023/05/27 02:32:25;;;;;;;;;;;;;;;12.20;62.20;102363.72;4194794;28;20011;-70
2023/05/27 02:34:27;;;;;;;;;;;;;;;12.19;62.27;102369.28;4195743;28;19924;-70
2023/05/27 02:36:29;;;;;;;;;;;;;;;12.18;62.61;102356.75;4196268;28;20367;-70
2023/05/27 02:38:31;;;;;;;;;;;;;;;12.15;62.41;102357.06;4195486;28;20019;-71
2023/05/27 02:40:33;;;;;;;;;;;;;;;12.11;62.43;102363.75;4195910;28;20026;-70
2023/05/27 02:42:35;;;;;;;;;;;;;;;12.05;62.75;102363.34;4192831;28;20023;-71
2023/05/27 02:44:39;;;;;;;;;;;;;;;11.98;63.16;102366.78;4196155;28;20026;-70
2023/05/27 02:46:41;;;;;;;;;;;;;;;11.96;63.16;102366.94;4195958;28;20446;-71
2023/05/27 02:48:43;;;;;;;;;;;;;;;11.95;63.32;102370.63;4179423;28;20399;-70
2023/05/27 02:50:45;;;;;;;;;;;;;;;11.90;63.26;102370.19;4196030;28;20019;-70
2023/05/27 02:52:47;;;;;;;;;;;;;;;11.85;63.37;102369.78;4194944;28;20031;-71
2023/05/27 02:54:49;;;;;;;;;;;;;;;11.81;63.75;102377.31;4195676;28;20397;-70
2023/05/27 02:56:51;;;;;;;;;;;;;;;11.77;63.85;102375.94;4196032;28;20051;-70
2023/05/27 02:58:53;;;;;;;;;;;;;;;11.80;63.84;102380.19;4195338;28;20019;-70
2023/05/27 03:00:56;;;;;;;;;;;;;;;11.82;63.76;102376.34;4195184;28;20043;-70
2023/05/27 03:02:58;;;;;;;;;;;;;;;11.84;63.64;102387.88;4196102;28;20007;-71
2023/05/27 03:05:01;;;;;;;;;;;;;;;11.82;63.60;102376.34;4195608;28;20027;-70
2023/05/27 03:07:03;;;;;;;;;;;;;;;11.78;63.80;102380.31;4196054;28;20011;-70
2023/05/27 03:09:07;;;;;;;;;;;;;;;11.77;63.76;102380.47;4195001;28;20017;-70
2023/05/27 03:11:09;;;;;;;;;;;;;;;11.75;63.79;102383.31;4194574;28;20019;-70
2023/05/27 03:13:11;;;;;;;;;;;;;;;11.72;64.10;102379.06;4195134;28;20011;-70
2023/05/27 03:15:14;;;;;;;;;;;;;;;11.71;64.11;102371.09;4195375;28;19932;-70
2023/05/27 03:17:18;;;;;;;;;;;;;;;11.71;63.82;102371.94;4187281;28;20024;-70
2023/05/27 03:19:22;;;;;;;;;;;;;;;11.72;63.68;102373.66;4195468;28;20027;-70
2023/05/27 03:21:24;;;;;;;;;;;;;;;11.65;64.19;102372.50;4182713;28;20019;-71
2023/05/27 03:23:26;;;;;;;;;;;;;;;11.60;64.15;102373.94;4194629;28;20007;-70
2023/05/27 03:25:28;;;;;;;;;;;;;;;11.61;64.66;102372.94;4195031;28;20022;-71
2023/05/27 03:27:32;;;;;;;;;;;;;;;11.60;64.56;102369.41;4194855;28;19958;-70
2023/05/27 03:29:36;;;;;;;;;;;;;;;11.64;64.56;102376.19;4195789;28;20028;-70
2023/05/27 03:31:38;;;;;;;;;;;;;;;11.61;64.03;102371.06;4195296;28;20007;-70
2023/05/27 03:33:47;;;;;;;;;;;;;;;11.63;64.49;102374.50;4196097;28;20031;-71
2023/05/27 03:35:49;;;;;;;;;;;;;;;11.59;64.35;102370.38;4195488;28;19928;-70
2023/05/27 03:37:52;;;;;;;;;;;;;;;11.57;64.36;102376.91;4194830;28;20031;-71
2023/05/27 03:39:54;;;;;;;;;;;;;;;11.55;64.92;102377.06;4193548;28;20035;-70
2023/05/27 03:41:56;;;;;;;;;;;;;;;11.51;65.35;102378.38;4209448;28;20015;-70
2023/05/27 03:43:58;;;;;;;;;;;;;;;11.54;64.84;102381.63;4193370;28;20028;-71
2023/05/27 03:46:02;;;;;;;;;;;;;;;11.57;65.26;102382.34;4186476;28;20024;-70
2023/05/27 03:48:05;;;;;;;;;;;;;;;11.57;65.37;102385.91;4193058;28;20031;-70
2023/05/27 03:50:08;;;;;;;;;;;;;;;11.58;65.55;102373.22;4203380;28;20888;-70
2023/05/27 03:52:11;;;;;;;;;;;;;;;11.61;65.36;102381.06;4193248;28;20574;-71
2023/05/27 03:54:14;;;;;;;;;;;;;;;11.64;65.41;102386.19;4193784;28;20027;-71
2023/05/27 03:56:16;;;;;;;;;;;;;;;11.68;65.31;102377.63;4193837;28;19932;-70
2023/05/27 03:58:20;;;;;;;;;;;;;;;11.73;65.53;102377.19;4190104;28;20027;-71
2023/05/27 04:00:22;;;;;;;;;;;;;;;11.77;65.42;102381.34;4198330;28;20026;-71
2023/05/27 04:02:24;;;;;;;;;;;;;;;11.82;65.20;102378.19;4193552;28;20445;-71
2023/05/27 04:04:27;;;;;;;;;;;;;;;11.84;65.25;102378.91;4194086;28;20011;-70
2023/05/27 04:06:31;;;;;;;;;;;;;;;11.85;66.01;102386.03;4193043;28;20023;-71
2023/05/27 04:08:35;;;;;;;;;;;;;;;11.87;65.75;102384.88;4189921;28;20031;-70
2023/05/27 04:10:38;;;;;;;;;;;;;;;11.87;66.18;102390.28;4209899;28;20022;-70
2023/05/27 04:12:41;;;;;;;;;;;;;;;11.89;65.98;102390.13;4193337;28;20025;-71
2023/05/27 04:14:43;;;;;;;;;;;;;;;11.92;66.03;102389.88;4193470;28;20422;-71
2023/05/27 04:16:45;;;;;;;;;;;;;;;11.97;66.55;102397.56;4193968;28;19931;-70
2023/05/27 04:18:48;;;;;;;;;;;;;;;11.98;66.19;102396.59;4193948;28;20015;-71
2023/05/27 04:20:52;;;;;;;;;;;;;;;12.00;66.17;102395.41;4195541;28;20023;-71
2023/05/27 04:22:55;;;;;;;;;;;;;;;12.04;66.00;102396.00;4193105;28;20358;-71
2023/05/27 04:24:58;;;;;;;;;;;;;;;12.04;66.16;102398.72;4194743;28;20015;-71
2023/05/27 04:27:09;;;;;;;;;;;;;;;12.08;66.11;102395.56;4194091;28;20020;-71
2023/05/27 04:29:11;;;;;;;;;;;;;;;12.15;65.73;102398.53;4177938;28;20035;-71
2023/05/27 04:31:15;;;;;;;;;;;;;;;12.18;65.91;102400.09;4202187;28;20010;-70
2023/05/27 04:33:27;;;;;;;;;;;;;;;12.23;65.46;102395.09;4208662;28;20019;-71
2023/05/27 04:35:30;;;;;;;;;;;;;;;12.31;65.39;102397.06;4193351;28;20073;-71
2023/05/27 04:37:33;;;;;;;;;;;;;;;12.34;65.11;102394.06;4193417;28;19932;-70
2023/05/27 04:39:45;;;;;;;;;;;;;;;12.37;65.34;102401.88;4209463;28;20413;-71
2023/05/27 04:41:48;;;;;;;;;;;;;;;12.41;65.28;102396.03;4208315;28;20023;-71
2023/05/27 04:43:56;;;;;;;;;;;;;;;12.48;65.01;102401.69;4194773;28;20391;-71
2023/05/27 04:46:03;;;;;;;;;;;;;;;12.51;65.28;102398.69;4178420;28;20032;-70
2023/05/27 04:48:06;;;;;;;;;;;;;;;12.53;64.77;102401.25;4192353;28;20031;-70
2023/05/27 04:50:08;;;;;;;;;;;;;;;12.52;64.93;102397.66;4186755;28;20032;-71
2023/05/27 04:52:12;;;;;;;;;;;;;;;12.53;64.86;102396.66;4200793;28;20643;-71
2023/05/27 04:54:14;;;;;;;;;;;;;;;12.58;64.94;102405.19;4188318;28;20027;-71
2023/05/27 04:56:18;;;;;;;;;;;;;;;12.62;64.61;102398.50;4194429;28;20903;-71
2023/05/27 04:58:20;;;;;;;;;;;;;;;12.66;64.75;102399.03;4193351;28;20406;-71
2023/05/27 05:00:36;;;;;;;;;;;;;;;12.70;64.63;102400.44;4190827;28;20390;-71
2023/05/27 05:02:39;;;;;;;;;;;;;;;12.73;64.70;102391.16;4193444;28;20019;-70
2023/05/27 05:04:50;;;;;;;;;;;;;;;12.77;64.36;102392.56;4192942;28;20482;-70
2023/05/27 05:06:52;;;;;;;;;;;;;;;12.84;64.17;102395.53;4196605;28;20003;-70
2023/05/27 05:08:56;;;;;;;;;;;;;;;12.88;63.92;102386.06;4205790;28;20099;-70
2023/05/27 05:10:58;;;;;;;;;;;;;;;12.91;64.01;102378.47;4197596;28;20007;-70
2023/05/27 05:13:02;;;;;;;;;;;;;;;12.98;63.73;102378.75;4197591;28;20090;-70
2023/05/27 05:15:05;;;;;;;;;;;;;;;13.05;63.70;102370.84;4196247;28;20039;-70
2023/05/27 05:17:07;;;;;;;;;;;;;;;13.11;63.58;102381.09;4195999;28;20512;-71
2023/05/27 05:19:09;;;;;;;;;;;;;;;13.14;63.15;102383.50;4176009;28;20407;-71
2023/05/27 05:21:13;;;;;;;;;;;;;;;13.18;62.81;102384.88;4195120;28;20027;-71
2023/05/27 05:23:17;;;;;;;;;;;;;;;13.19;62.75;102383.03;4196009;28;20007;-70
2023/05/27 05:25:20;;;;;;;;;;;;;;;13.24;63.14;102392.38;4196952;28;20063;-71
2023/05/27 05:27:25;;;;;;;;;;;;;;;13.28;62.67;102384.81;4197193;28;20019;-71
2023/05/27 05:29:29;;;;;;;;;;;;;;;13.31;62.65;102387.22;4196485;28;20015;-70
2023/05/27 05:31:33;;;;;;;;;;;;;;;13.33;62.67;102390.66;4213054;28;20023;-70
2023/05/27 05:33:35;;;;;;;;;;;;;;;13.40;62.09;102390.88;4194885;28;20011;-70
2023/05/27 05:35:37;;;;;;;;;;;;;;;13.45;62.10;102388.56;4195122;28;20054;-70
2023/05/27 05:37:54;;;;;;;;;;;;;;;13.46;61.70;102391.13;4212634;28;20418;-70
2023/05/27 05:39:56;;;;;;;;;;;;;;;13.51;61.86;102387.91;4210279;28;20001;-70
2023/05/27 05:42:00;;;;;;;;;;;;;;;13.57;62.07;102394.59;4192306;28;20019;-70
2023/05/27 05:44:02;;;;;;;;;;;;;;;13.61;61.87;102390.56;4208427;28;19931;-70
2023/05/27 05:46:06;;;;;;;;;;;;;;;13.66;61.96;102388.22;4195116;28;20090;-70
2023/05/27 05:48:08;;;;;;;;;;;;;;;13.71;61.51;102396.75;4194058;28;20024;-70
2023/05/27 05:50:12;;;;;;;;;;;;;;;13.74;61.38;102393.72;4194439;28;20386;-70
2023/05/27 05:52:15;;;;;;;;;;;;;;;13.77;61.63;102392.56;4191890;28;20031;-69
2023/05/27 05:54:17;;;;;;;;;;;;;;;13.81;61.09;102388.53;4210577;28;20018;-70
2023/05/27 05:56:25;;;;;;;;;;;;;;;13.86;60.62;102394.34;4203190;28;20424;-70
2023/05/27 05:58:27;;;;;;;;;;;;;;;13.91;60.45;102391.16;4187203;28;20027;-70
2023/05/27 06:00:29;;;;;;;;;;;;;;;13.96;60.57;102396.94;4190691;28;20822;-70
2023/05/27 06:02:50;;;;;;;;;;;;;;;13.99;60.14;102399.34;4189138;28;20019;-70
2023/05/27 06:05:11;;;;;;;;;;;;;;;14.04;59.92;102387.00;4192422;28;20020;-70
2023/05/27 06:07:13;;;;;;;;;;;;;;;14.07;58.91;102391.25;4192846;28;20027;-70
2023/05/27 06:09:21;;;;;;;;;;;;;;;14.11;59.21;102384.50;4211551;28;20026;-70
2023/05/27 06:11:24;;;;;;;;;;;;;;;14.14;58.84;102392.31;4196101;28;20028;-70
2023/05/27 06:13:26;;;;;;;;;;;;;;;14.19;58.43;102387.25;4195610;28;20015;-70
2023/05/27 06:15:31;;;;;;;;;;;;;;;14.24;57.25;102395.75;4194763;28;20035;-70
2023/05/27 06:17:34;;;;;;;;;;;;;;;14.27;56.63;102388.31;4211145;28;20019;-70
2023/05/27 06:19:37;;;;;;;;;;;;;;;14.29;56.46;102389.00;4196061;28;20453;-68
2023/05/27 06:21:40;;;;;;;;;;;;;;;14.30;56.48;102396.16;4211500;28;20387;-69
2023/05/27 06:24:02;;;;;;;;;;;;;;;14.33;55.91;102393.94;4194968;28;20035;-68
2023/05/27 06:26:09;;;;;;;;;;;;;;;14.37;55.24;102402.63;4194278;28;20028;-69
2023/05/27 06:28:18;;;;;;;;;;;;;;;14.39;55.28;102403.34;4194647;28;20012;-69
2023/05/27 06:30:20;;;;;;;;;;;;;;;14.45;55.45;102401.81;4208899;28;20019;-69
2023/05/27 06:32:24;;;;;;;;;;;;;;;14.48;55.77;102391.50;4192242;28;20015;-69
2023/05/27 06:34:26;;;;;;;;;;;;;;;14.53;55.58;102400.00;4211429;28;20018;-69
2023/05/27 06:36:30;;;;;;;;;;;;;;;14.57;54.61;102398.66;4174982;28;20477;-69
2023/05/27 06:38:32;;;;;;;;;;;;;;;14.57;53.79;102404.09;4209076;28;20030;-69
2023/05/27 06:40:35;;;;;;;;;;;;;;;14.62;54.34;102408.22;4195916;28;20403;-68
2023/05/27 06:42:37;;;;;;;;;;;;;;;14.65;54.01;102410.63;4194286;28;19929;-69
2023/05/27 06:44:58;;;;;;;;;;;;;;;14.69;53.38;102407.41;4193818;28;20020;-69
2023/05/27 06:47:04;;;;;;;;;;;;;;;14.72;52.21;102409.81;4194720;28;20031;-71
2023/05/27 06:49:06;;;;;;;;;;;;;;;14.75;52.52;102408.63;4210052;28;20028;-70
2023/05/27 06:51:08;;;;;;;;;;;;;;;14.77;53.06;102412.03;4193526;28;20035;-70
2023/05/27 06:53:13;;;;;;;;;;;;;;;14.80;52.56;102406.25;4192743;28;20019;-76
2023/05/27 06:55:30;;;;;;;;;;;;;;;14.84;52.72;102410.34;4193766;28;20102;-69
2023/05/27 06:57:41;;;;;;;;;;;;;;;14.87;51.69;102409.16;4193797;28;21568;-69
2023/05/27 06:59:52;;;;;;;;;;;;;;;14.88;51.02;102414.44;4173543;28;19952;-68
2023/05/27 07:01:56;;;;;;;;;;;;;;;14.91;50.12;102405.13;4192554;28;20008;-69
2023/05/27 07:03:57;;;;;;;;;;;;;;;14.93;50.54;102413.97;4194491;28;19958;-68
2023/05/27 07:06:14;;;;;;;;;;;;;;;14.94;50.60;102408.34;4195140;28;20011;-68
2023/05/27 07:08:24;;;;;;;;;;;;;;;14.98;50.79;102408.03;4193143;28;20521;-68
2023/05/27 07:10:39;;;;;;;;;;;;;;;15.01;49.92;102404.97;4192881;28;20051;-68
2023/05/27 07:12:41;;;;;;;;;;;;;;;15.03;48.91;102406.53;4191669;28;20007;-68
2023/05/27 07:15:04;;;;;;;;;;;;;;;15.04;47.87;102405.47;4193595;28;20031;-68
2023/05/27 07:17:07;;;;;;;;;;;;;;;15.07;48.73;102407.03;4193248;28;20011;-68
2023/05/27 07:19:09;;;;;;;;;;;;;;;15.07;47.77;102402.44;4209629;28;20006;-69
2023/05/27 07:21:20;;;;;;;;;;;;;;;15.09;47.72;102394.97;4193565;28;20011;-69
2023/05/27 07:23:24;;;;;;;;;;;;;;;15.11;47.98;102392.09;4208132;28;20031;-68
2023/05/27 07:25:37;;;;;;;;;;;;;;;15.14;48.59;102399.91;4193116;28;19958;-68
2023/05/27 07:27:39;;;;;;;;;;;;;;;15.18;48.16;102397.69;4195455;28;20011;-68
2023/05/27 07:29:41;;;;;;;;;;;;;;;15.20;47.98;102395.66;4194496;28;20030;-70
2023/05/27 07:32:15;;;;;;;;;;;;;;;15.21;46.17;102394.66;4198783;28;20023;-68
2023/05/27 07:34:17;;;;;;;;;;;;;;;15.22;46.66;102388.16;4192427;28;20591;-68
2023/05/27 07:36:19;;;;;;;;;;;;;;;15.24;46.63;102391.59;4192229;28;20019;-71
2023/05/27 07:38:21;;;;;;;;;;;;;;;15.22;47.16;102382.72;4210354;28;20011;-68
2023/05/27 07:40:25;;;;;;;;;;;;;;;15.27;47.13;102391.25;4192706;28;20019;-68
2023/05/27 07:42:26;;;;;;;;;;;;;;;15.29;46.84;102390.03;4192746;28;20377;-69
2023/05/27 07:44:29;;;;;;;;;;;;;;;15.33;46.17;102390.59;4193206;28;20015;-69
2023/05/27 07:46:32;;;;;;;;;;;;;;;15.35;46.15;102382.25;4208410;28;19962;-68
2023/05/27 07:48:34;;;;;;;;;;;;;;;15.38;46.12;102376.47;4193902;28;20051;-68
2023/05/27 07:50:36;;;;;;;;;;;;;;;15.39;45.45;102375.44;4192343;28;20030;-68
2023/05/27 07:52:49;;;;;;;;;;;;;;;15.40;44.78;102371.69;4191399;28;20031;-68
2023/05/27 07:54:58;;;;;;;;;;;;;;;15.41;44.86;102381.56;4190732;28;20043;-68
2023/05/27 07:57:02;;;;;;;;;;;;;;;15.42;45.30;102372.38;4189989;28;20023;-68
2023/05/27 07:59:05;;;;;;;;;;;;;;;15.44;45.14;102364.91;4204078;28;20031;-68
2023/05/27 08:01:07;;;;;;;;;;;;;;;15.45;44.67;102367.47;4188466;28;20058;-68
2023/05/27 08:03:09;;;;;;;;;;;;;;;15.48;43.17;102363.53;4190926;28;20027;-68
2023/05/27 08:05:27;;;;;;;;;;;;;;;15.49;44.31;102362.50;4189680;28;20019;-69
2023/05/27 08:07:39;;;;;;;;;;;;;;;15.52;44.66;102364.03;4197905;28;19932;-69
2023/05/27 08:09:58;;;;;;;;;;;;;;;15.55;45.07;102361.84;4191915;28;20028;-69
2023/05/27 08:12:23;;;;;;;;;;;;;;;15.58;45.71;102357.91;4170716;28;20359;-68
2023/05/27 08:14:51;;;;;;;;;;;;;;;15.60;45.84;102351.28;4197475;28;20027;-69
2023/05/27 08:17:20;;;;;;;;;;;;;;;15.62;43.99;102351.94;4198253;28;20015;-69
2023/05/27 08:19:40;;;;;;;;;;;;;;;15.64;44.80;102352.66;4191988;28;20048;-69
2023/05/27 08:22:03;;;;;;;;;;;;;;;15.68;45.72;102350.41;4187881;28;20530;-69
2023/05/27 08:24:24;;;;;;;;;;;;;;;15.69;45.17;102346.69;4190977;28;20016;-69
2023/05/27 08:26:42;;;;;;;;;;;;;;;15.71;45.22;102346.50;4190772;28;20096;-69
2023/05/27 08:29:01;;;;;;;;;;;;;;;15.72;46.16;102346.34;4191775;28;19934;-69
2023/05/27 08:31:14;;;;;;;;;;;;;;;15.75;46.41;102347.84;4192861;28;20462;-69
2023/05/27 08:33:23;;;;;;;;;;;;;;;15.76;46.62;102339.50;4209931;28;20030;-69
2023/05/27 08:35:28;;;;;;;;;;;;;;;15.79;46.82;102332.91;4211015;28;20899;-69
2023/05/27 08:37:30;;;;;;;;;;;;;;;15.82;45.74;102335.28;4194351;28;20012;-69
2023/05/27 08:39:32;;;;;;;;;;;;;;;15.82;43.83;102336.13;4193388;28;20034;-69
2023/05/27 08:41:42;;;;;;;;;;;;;;;15.85;43.45;102330.34;4193247;28;20019;-69
2023/05/27 08:43:44;;;;;;;;;;;;;;;15.88;43.89;102328.28;4193925;28;20011;-69
2023/05/27 08:45:49;;;;;;;;;;;;;;;15.90;41.98;102326.25;4193547;28;20012;-69
2023/05/27 08:47:52;;;;;;;;;;;;;;;15.92;42.04;102321.47;4193516;28;20027;-69
2023/05/27 08:49:58;;;;;;;;;;;;;;;15.91;42.48;102323.34;4206548;28;20379;-69
2023/05/27 08:52:00;;;;;;;;;;;;;;;15.95;43.81;102323.84;4185225;28;20048;-69
2023/05/27 08:54:02;;;;;;;;;;;;;;;15.99;45.50;102317.03;4194316;28;20035;-69
2023/05/27 08:56:05;;;;;;;;;;;;;;;16.00;44.32;102315.97;4194413;28;20047;-69
2023/05/27 08:58:09;;;;;;;;;;;;;;;15.99;42.65;102306.13;4193630;28;20007;-69
2023/05/27 09:00:17;;;;;;;;;;;;;;;16.00;41.49;102311.41;4193874;28;20907;-69
2023/05/27 09:02:21;;;;;;;;;;;;;;;16.01;40.77;102304.06;4169827;28;20024;-70
2023/05/27 09:04:23;;;;;;;;;;;;;;;16.01;39.23;102301.34;4209247;28;20368;-69
2023/05/27 09:06:25;;;;;;;;;;;;;;;16.04;40.93;102306.44;4193701;28;20454;-69
2023/05/27 09:08:28;;;;;;;;;;;;;;;16.05;44.17;102305.44;4193976;28;20380;-69
2023/05/27 09:10:36;;;;;;;;;;;;;;;16.08;44.67;102313.25;4194982;28;20442;-69
2023/05/27 09:12:37;;;;;;;;;;;;;;;16.12;45.62;102309.13;4194654;28;20022;-69
2023/05/27 09:14:42;;;;;;;;;;;;;;;16.14;43.84;102309.81;4194882;28;20023;-69
2023/05/27 09:16:44;;;;;;;;;;;;;;;16.19;45.50;102312.88;4194709;28;20040;-69
2023/05/27 09:18:48;;;;;;;;;;;;;;;16.20;44.69;102303.66;4195516;28;20015;-69
2023/05/27 09:20:54;;;;;;;;;;;;;;;16.25;45.36;102307.72;4195084;28;20375;-69
2023/05/27 09:22:59;;;;;;;;;;;;;;;16.24;42.22;102306.03;4194296;28;20349;-69
2023/05/27 09:25:01;;;;;;;;;;;;;;;16.25;41.40;102302.28;4194991;28;20392;-69
2023/05/27 09:27:04;;;;;;;;;;;;;;;16.26;44.74;102304.84;4194230;28;20362;-69
2023/05/27 09:29:06;;;;;;;;;;;;;;;16.29;45.36;102306.38;4194330;28;20024;-69
2023/05/27 09:31:09;;;;;;;;;;;;;;;16.31;46.00;102305.16;4194950;28;20612;-69
2023/05/27 09:33:11;;;;;;;;;;;;;;;16.33;45.60;102302.25;4194660;28;20032;-69
2023/05/27 09:35:15;;;;;;;;;;;;;;;16.33;43.78;102302.25;4193617;28;20009;-69
2023/05/27 09:37:20;;;;;;;;;;;;;;;16.33;41.52;102296.78;4194444;28;20382;-69
2023/05/27 09:39:23;;;;;;;;;;;;;;;16.31;39.46;102294.25;4194555;28;20007;-69
2023/05/27 09:41:26;;;;;;;;;;;;;;;16.33;41.53;102297.66;4194483;28;20020;-69
2023/05/27 09:43:28;;;;;;;;;;;;;;;16.34;43.38;102295.78;4193352;28;20026;-69
2023/05/27 09:45:30;;;;;;;;;;;;;;;16.37;43.87;102298.97;4194611;28;20035;-69
2023/05/27 09:47:32;;;;;;;;;;;;;;;16.42;45.70;102300.34;4194506;28;20015;-69
2023/05/27 09:49:35;;;;;;;;;;;;;;;16.44;45.61;102298.28;4195101;28;20434;-69
2023/05/27 09:51:39;;;;;;;;;;;;;;;16.44;45.58;102290.09;4194310;28;19932;-69
2023/05/27 09:53:40;;;;;;;;;;;;;;;16.46;45.80;102296.25;4195942;28;20037;-69
2023/05/27 09:55:43;;;;;;;;;;;;;;;16.50;45.80;102281.19;4196995;28;20033;-69
2023/05/27 09:57:45;;;;;;;;;;;;;;;16.51;45.89;102274.72;4197193;28;20015;-69
2023/05/27 09:59:47;;;;;;;;;;;;;;;16.54;45.70;102271.66;4196578;28;20233;-69
2023/05/27 10:01:49;;;;;;;;;;;;;;;16.57;45.25;102268.56;4196198;28;20023;-69
2023/05/27 10:03:51;;;;;;;;;;;;;;;16.60;45.17;102270.06;4197462;28;20018;-69
2023/05/27 10:05:53;;;;;;;;;;;;;;;16.61;45.43;102263.59;4197121;28;20050;-69
2023/05/27 10:07:56;;;;;;;;;;;;;;;16.60;45.66;102262.75;4196035;28;20427;-69
2023/05/27 10:10:00;;;;;;;;;;;;;;;16.63;45.46;102261.50;4197104;28;20015;-69
2023/05/27 10:12:02;;;;;;;;;;;;;;;16.63;44.93;102270.56;4196757;28;19924;-69
2023/05/27 10:14:04;;;;;;;;;;;;;;;16.67;44.75;102260.13;4195722;28;20022;-69
2023/05/27 10:16:06;;;;;;;;;;;;;;;16.68;45.20;102264.56;4196675;28;20024;-69
2023/05/27 10:18:09;;;;;;;;;;;;;;;16.68;44.90;102262.69;4196516;28;20028;-69
2023/05/27 10:20:11;;;;;;;;;;;;;;;16.68;45.00;102265.41;4196748;28;20011;-69
2023/05/27 10:22:13;;;;;;;;;;;;;;;16.71;44.86;102265.06;4195408;28;20023;-69
2023/05/27 10:24:17;;;;;;;;;;;;;;;16.73;44.52;102262.97;4196379;28;20023;-69
2023/05/27 10:26:19;;;;;;;;;;;;;;;16.76;44.64;102264.50;4196262;28;20019;-69
2023/05/27 10:28:25;;;;;;;;;;;;;;;16.77;44.52;102266.22;4196934;28;20019;-69
2023/05/27 10:30:27;;;;;;;;;;;;;;;16.79;44.79;102257.84;4195705;28;20459;-69
2023/05/27 10:32:29;;;;;;;;;;;;;;;16.80;44.54;102260.38;4195523;28;20374;-69
2023/05/27 10:34:35;;;;;;;;;;;;;;;16.83;44.25;102261.91;4196259;28;20023;-69
2023/05/27 10:36:37;;;;;;;;;;;;;;;16.86;43.78;102256.13;4196913;28;20019;-69
2023/05/27 10:38:40;;;;;;;;;;;;;;;16.89;44.03;102242.94;4196659;28;20023;-69